Time;durP1;ratioP1;P1;durP2;ratioP2;P2;SDS_P1;SDS_P2;PMS_P1;PMS_P2;Temp;Humidity;BMP_temperature;BMP_pressure;BME280_temperature;BME280_humidity;BME280_pressure;Samples;Min_cycle;Max_cycle;Signal;HPM_P1;HPM_P2
2021/09/03 00:01:06;;;;;;;18.83;11.35;;;16.60;99.90;;;;;;5057474;28;20381;-68
2021/09/03 00:03:33;;;;;;;21.70;12.13;;;16.60;99.90;;;;;;5075939;28;20032;-67
2021/09/03 00:05:59;;;;;;;18.02;10.80;;;16.60;99.90;;;;;;5075772;28;20021;-69
2021/09/03 00:08:26;;;;;;;18.33;11.25;;;16.60;99.90;;;;;;5058000;28;20090;-68
2021/09/03 00:10:52;;;;;;;21.35;12.65;;;16.60;99.90;;;;;;5057450;28;20037;-68
2021/09/03 00:13:18;;;;;;;20.23;12.85;;;16.50;99.90;;;;;;5075491;28;20031;-69
2021/09/03 00:15:44;;;;;;;19.95;12.02;;;16.60;99.90;;;;;;5075215;28;20086;-67
2021/09/03 00:18:10;;;;;;;20.67;12.00;;;16.50;99.90;;;;;;5074887;28;20477;-67
2021/09/03 00:20:36;;;;;;;18.85;12.00;;;16.50;99.90;;;;;;5056528;28;20032;-66
2021/09/03 00:23:02;;;;;;;22.42;12.20;;;16.40;99.90;;;;;;5056292;28;20020;-66
2021/09/03 00:25:28;;;;;;;19.13;12.25;;;16.40;99.90;;;;;;5074328;28;20424;-66
2021/09/03 00:27:54;;;;;;;18.80;11.88;;;16.40;99.90;;;;;;5056669;28;20131;-68
2021/09/03 00:30:20;;;;;;;19.88;11.88;;;16.30;99.90;;;;;;5056398;28;20029;-66
2021/09/03 00:32:46;;;;;;;17.95;12.00;;;16.40;99.90;;;;;;5075215;28;20071;-68
2021/09/03 00:35:12;;;;;;;15.38;11.63;;;16.30;99.90;;;;;;5074357;28;20132;-67
2021/09/03 00:37:38;;;;;;;26.48;13.35;;;16.30;99.90;;;;;;5074429;28;20033;-68
2021/09/03 00:40:05;;;;;;;18.52;13.20;;;16.20;99.90;;;;;;5074622;28;20133;-68
2021/09/03 00:42:31;;;;;;;19.00;12.95;;;16.10;99.90;;;;;;5074070;28;20496;-65
2021/09/03 00:44:57;;;;;;;21.05;11.82;;;16.10;99.90;;;;;;5074008;28;20028;-66
2021/09/03 00:47:23;;;;;;;29.02;14.20;;;16.00;99.90;;;;;;5055331;28;20042;-65
2021/09/03 00:49:49;;;;;;;21.08;13.70;;;16.00;99.90;;;;;;5073907;28;20103;-67
2021/09/03 00:52:16;;;;;;;19.88;13.18;;;15.80;99.90;;;;;;5055824;28;20036;-65
2021/09/03 00:54:42;;;;;;;22.30;13.32;;;15.70;99.90;;;;;;5055668;28;20461;-69
2021/09/03 00:57:09;;;;;;;21.90;12.43;;;15.60;99.90;;;;;;5073986;28;20032;-66
2021/09/03 00:59:35;;;;;;;17.00;12.43;;;15.50;99.90;;;;;;5073671;28;20107;-66
2021/09/03 01:02:01;;;;;;;20.58;13.75;;;;;;;;;;5051901;28;20132;-66
2021/09/03 01:04:35;;;;;;;18.92;12.95;;;;;;;;;;5052157;28;20477;-69
2021/09/03 01:07:01;;;;;;;20.92;12.70;;;;;;;;;;5053226;28;20024;-69
2021/09/03 01:09:27;;;;;;;19.60;11.65;;;;;;;;;;5053387;28;20075;-68
2021/09/03 01:11:53;;;;;;;17.95;12.18;;;;;;;;;;5053421;28;20082;-68
2021/09/03 01:14:20;;;;;;;20.05;12.27;;;;;;;;;;5053296;28;20083;-69
2021/09/03 01:16:46;;;;;;;23.45;11.48;;;;;;;;;;5053323;28;20025;-69
2021/09/03 01:19:12;;;;;;;17.75;11.57;;;;;;;;;;5053492;28;20112;-69
2021/09/03 01:21:38;;;;;;;20.02;12.20;;;15.50;99.90;;;;;;5053238;28;20100;-68
2021/09/03 01:24:04;;;;;;;19.20;12.02;;;15.20;99.90;;;;;;5052119;28;20124;-68
2021/09/03 01:26:30;;;;;;;24.80;12.18;;;15.10;99.90;;;;;;5051823;28;20032;-68
2021/09/03 01:28:56;;;;;;;16.92;11.05;;;;;;;;;;5053102;28;20025;-69
2021/09/03 01:31:22;;;;;;;18.25;12.10;;;;;;;;;;5053183;28;20029;-69
2021/09/03 01:33:49;;;;;;;19.10;13.20;;;;;;;;;;5051806;28;20063;-69
2021/09/03 01:36:15;;;;;;;20.95;12.77;;;;;;;;;;5053026;28;20052;-69
2021/09/03 01:38:42;;;;;;;23.50;14.07;;;15.10;99.90;;;;;;5052588;28;20021;-69
2021/09/03 01:41:09;;;;;;;23.17;13.70;;;;;;;;;;5049598;28;20033;-69
2021/09/03 01:43:35;;;;;;;17.85;12.02;;;;;;;;;;5049544;28;20474;-69
2021/09/03 01:46:00;;;;;;;17.20;11.43;;;15.10;99.90;;;;;;5051096;28;20025;-69
2021/09/03 01:48:26;;;;;;;17.30;11.20;;;15.00;99.90;;;;;;5051295;28;20065;-69
2021/09/03 01:50:52;;;;;;;19.33;13.93;;;15.00;99.90;;;;;;5051118;28;20512;-68
2021/09/03 01:53:18;;;;;;;20.35;13.45;;;14.90;99.90;;;;;;5051202;28;20108;-69
2021/09/03 01:55:43;;;;;;;24.05;14.90;;;14.90;99.90;;;;;;5051282;28;20414;-68
2021/09/03 01:58:09;;;;;;;20.15;14.40;;;14.80;99.90;;;;;;5051584;28;20071;-68
2021/09/03 02:00:35;;;;;;;23.92;13.65;;;14.80;99.90;;;;;;5056849;28;20096;-68
2021/09/03 02:03:01;;;;;;;17.70;13.15;;;14.80;99.90;;;;;;5073956;28;20071;-68
2021/09/03 02:05:27;;;;;;;18.65;12.95;;;14.80;99.90;;;;;;5076782;28;20063;-68
2021/09/03 02:07:53;;;;;;;19.67;12.90;;;14.70;99.90;;;;;;5058777;28;20025;-68
2021/09/03 02:10:18;;;;;;;24.02;13.63;;;14.70;99.90;;;;;;5058775;28;20028;-68
2021/09/03 02:12:44;;;;;;;17.45;12.90;;;14.80;99.90;;;;;;5076546;28;20465;-68
2021/09/03 02:15:10;;;;;;;20.63;12.52;;;14.80;99.90;;;;;;5076594;28;20049;-67
2021/09/03 02:17:37;;;;;;;18.52;12.50;;;14.80;99.90;;;;;;5076604;28;20025;-66
2021/09/03 02:20:04;;;;;;;18.88;12.85;;;14.80;99.90;;;;;;5076517;28;20028;-68
2021/09/03 02:22:30;;;;;;;21.50;14.27;;;14.70;99.90;;;;;;5076445;28;20044;-68
2021/09/03 02:24:56;;;;;;;19.48;13.32;;;14.70;99.90;;;;;;5058423;28;20032;-67
2021/09/03 02:27:21;;;;;;;19.40;13.63;;;14.60;99.90;;;;;;5076420;28;20029;-68
2021/09/03 02:29:47;;;;;;;23.20;12.90;;;14.70;99.90;;;;;;5076575;28;20028;-68
2021/09/03 02:32:16;;;;;;;21.90;12.38;;;14.60;99.90;;;;;;5058299;28;20040;-67
2021/09/03 02:34:42;;;;;;;18.70;13.43;;;14.60;99.90;;;;;;5075932;28;20378;-68
2021/09/03 02:37:08;;;;;;;15.93;12.00;;;14.60;99.90;;;;;;5076450;28;20036;-67
2021/09/03 02:39:34;;;;;;;23.92;13.30;;;14.60;99.90;;;;;;5076445;28;20020;-68
2021/09/03 02:42:00;;;;;;;24.60;12.57;;;14.60;99.90;;;;;;5076386;28;20028;-68
2021/09/03 02:44:26;;;;;;;17.38;12.15;;;14.70;99.90;;;;;;5076057;28;20021;-67
2021/09/03 02:46:52;;;;;;;19.88;12.43;;;14.70;99.90;;;;;;5076273;28;20055;-67
2021/09/03 02:49:17;;;;;;;17.45;12.27;;;14.60;99.90;;;;;;5076000;28;20036;-66
2021/09/03 02:51:43;;;;;;;26.40;12.32;;;14.50;99.90;;;;;;5075871;28;20043;-67
2021/09/03 02:54:09;;;;;;;15.88;12.38;;;14.50;99.90;;;;;;5075604;28;20362;-67
2021/09/03 02:56:35;;;;;;;18.85;12.35;;;14.50;99.90;;;;;;5057869;28;20025;-68
2021/09/03 02:59:01;;;;;;;17.92;12.77;;;14.50;99.90;;;;;;5075883;28;20025;-67
2021/09/03 03:01:27;;;;;;;22.48;12.32;;;14.50;99.90;;;;;;5075223;28;20044;-66
2021/09/03 03:03:53;;;;;;;19.17;13.38;;;14.50;99.90;;;;;;5074558;28;20484;-69
2021/09/03 03:06:19;;;;;;;22.08;12.80;;;14.50;99.90;;;;;;5074809;28;20033;-68
2021/09/03 03:08:45;;;;;;;18.25;12.25;;;14.40;99.90;;;;;;5074564;28;20064;-67
2021/09/03 03:11:11;;;;;;;18.58;12.75;;;14.40;99.90;;;;;;5074254;28;20437;-67
2021/09/03 03:13:37;;;;;;;18.92;12.55;;;14.40;99.90;;;;;;5074421;28;20028;-67
2021/09/03 03:16:04;;;;;;;16.42;11.02;;;14.40;99.90;;;;;;5074327;28;20035;-68
2021/09/03 03:18:30;;;;;;;13.18;10.27;;;14.40;99.90;;;;;;5056415;28;20031;-68
2021/09/03 03:20:55;;;;;;;17.02;11.13;;;14.40;99.90;;;;;;5074265;28;20028;-68
2021/09/03 03:23:21;;;;;;;17.10;12.43;;;14.40;99.90;;;;;;5074303;28;20377;-68
2021/09/03 03:25:47;;;;;;;16.42;10.77;;;14.40;99.90;;;;;;5074187;28;20036;-68
2021/09/03 03:28:14;;;;;;;24.10;11.73;;;14.40;99.90;;;;;;5074250;28;20047;-67
2021/09/03 03:30:39;;;;;;;23.65;11.52;;;14.40;99.90;;;;;;5074057;28;20028;-67
2021/09/03 03:33:05;;;;;;;31.73;12.35;;;14.30;99.90;;;;;;5074116;28;20368;-68
2021/09/03 03:35:31;;;;;;;19.25;11.05;;;14.30;99.90;;;;;;5074084;28;20437;-68
2021/09/03 03:37:57;;;;;;;25.40;11.88;;;14.20;99.90;;;;;;5074082;28;20032;-68
2021/09/03 03:40:23;;;;;;;20.08;11.98;;;14.20;99.90;;;;;;5055986;28;20459;-66
2021/09/03 03:42:49;;;;;;;16.88;11.02;;;14.20;99.90;;;;;;5073981;28;20067;-66
2021/09/03 03:45:15;;;;;;;17.00;12.00;;;14.20;99.90;;;;;;5073935;28;20038;-66
2021/09/03 03:47:41;;;;;;;20.90;11.45;;;14.20;99.90;;;;;;5073677;28;20454;-66
2021/09/03 03:50:09;;;;;;;22.27;13.07;;;14.10;99.90;;;;;;5073588;28;20459;-67
2021/09/03 03:52:34;;;;;;;22.30;12.57;;;14.10;99.90;;;;;;5073715;28;20088;-67
2021/09/03 03:55:00;;;;;;;24.30;12.48;;;14.10;99.90;;;;;;5073713;28;20029;-66
2021/09/03 03:57:26;;;;;;;24.77;13.60;;;14.10;99.90;;;;;;5073446;28;20037;-69
2021/09/03 03:59:52;;;;;;;17.42;12.70;;;14.10;99.90;;;;;;5073737;28;20074;-68
2021/09/03 04:02:18;;;;;;;21.40;13.27;;;14.10;99.90;;;;;;5022148;28;1478210;-69
2021/09/03 04:04:44;;;;;;;26.02;14.45;;;14.00;99.90;;;;;;5056609;28;20033;-69
2021/09/03 04:07:09;;;;;;;22.67;15.48;;;14.00;99.90;;;;;;5074256;28;20029;-68
2021/09/03 04:09:35;;;;;;;27.88;15.95;;;13.80;99.90;;;;;;5074488;28;20150;-69
2021/09/03 04:12:01;;;;;;;30.23;21.23;;;13.80;99.90;;;;;;5074106;28;20123;-67
2021/09/03 04:14:27;;;;;;;32.75;22.73;;;13.80;99.90;;;;;;5074359;28;20096;-65
2021/09/03 04:16:52;;;;;;;30.92;19.60;;;13.70;99.90;;;;;;5056332;28;20362;-69
2021/09/03 04:19:19;;;;;;;24.67;17.02;;;13.70;99.90;;;;;;5074341;28;20035;-65
2021/09/03 04:21:45;;;;;;;22.55;13.73;;;13.70;99.90;;;;;;5055478;28;20056;-66
2021/09/03 04:24:11;;;;;;;24.27;13.82;;;13.70;99.90;;;;;;5056181;28;20466;-66
2021/09/03 04:26:37;;;;;;;20.85;15.88;;;13.70;99.90;;;;;;5074121;28;20032;-66
2021/09/03 04:29:03;;;;;;;26.45;13.13;;;13.80;99.90;;;;;;5056240;28;20056;-65
2021/09/03 04:31:29;;;;;;;21.05;12.80;;;13.70;99.90;;;;;;5074012;28;20133;-66
2021/09/03 04:33:55;;;;;;;19.42;13.32;;;13.70;99.90;;;;;;5056021;28;20105;-65
2021/09/03 04:36:21;;;;;;;25.05;11.77;;;13.70;99.90;;;;;;5056003;28;20484;-66
2021/09/03 04:38:47;;;;;;;22.52;10.45;;;13.60;99.90;;;;;;5073933;28;20029;-69
2021/09/03 04:41:13;;;;;;;26.20;11.40;;;13.60;99.90;;;;;;5055855;28;20028;-69
2021/09/03 04:43:39;;;;;;;31.35;10.60;;;13.60;99.90;;;;;;5055818;28;20032;-66
2021/09/03 04:46:05;;;;;;;27.00;11.65;;;13.60;99.90;;;;;;5073454;28;20024;-65
2021/09/03 04:48:31;;;;;;;19.40;10.20;;;13.60;99.90;;;;;;5073754;28;20495;-67
2021/09/03 04:50:56;;;;;;;25.40;11.68;;;13.60;99.90;;;;;;5073534;28;20043;-70
2021/09/03 04:53:22;;;;;;;28.38;11.65;;;13.60;99.90;;;;;;5073620;28;20096;-69
2021/09/03 04:55:48;;;;;;;20.50;12.45;;;13.60;99.90;;;;;;5073846;28;20032;-69
2021/09/03 04:58:14;;;;;;;21.70;12.45;;;13.60;99.90;;;;;;5073485;28;20067;-67
2021/09/03 05:00:40;;;;;;;26.67;13.05;;;13.70;99.90;;;;;;5073412;28;20056;-69
2021/09/03 05:03:06;;;;;;;37.30;12.93;;;13.60;99.90;;;;;;5073511;28;20051;-70
2021/09/03 05:05:32;;;;;;;25.65;15.38;;;13.70;99.90;;;;;;5055361;28;20064;-69
2021/09/03 05:07:58;;;;;;;32.20;18.52;;;13.70;99.90;;;;;;5055266;28;20032;-66
2021/09/03 05:10:23;;;;;;;35.90;17.08;;;13.70;99.90;;;;;;5055330;28;20029;-68
2021/09/03 05:12:49;;;;;;;24.88;13.60;;;13.80;99.90;;;;;;5073222;28;20037;-66
2021/09/03 05:15:18;;;;;;;22.80;13.15;;;13.80;99.90;;;;;;5072844;28;20385;-67
2021/09/03 05:17:49;;;;;;;23.67;13.73;;;13.80;99.90;;;;;;5055334;28;20085;-66
2021/09/03 05:20:16;;;;;;;24.98;12.88;;;13.80;99.90;;;;;;5055172;28;20358;-66
2021/09/03 05:22:43;;;;;;;25.77;12.88;;;13.90;99.90;;;;;;5055084;28;20028;-66
2021/09/03 05:25:09;;;;;;;19.42;12.75;;;13.90;99.90;;;;;;5054964;28;20028;-65
2021/09/03 05:27:36;;;;;;;31.13;13.00;;;13.90;99.90;;;;;;5072975;28;20028;-65
2021/09/03 05:30:04;;;;;;;22.83;13.45;;;13.90;99.90;;;;;;5073299;28;20027;-64
2021/09/03 05:32:30;;;;;;;23.33;13.93;;;13.90;99.90;;;;;;5072520;28;20396;-65
2021/09/03 05:34:55;;;;;;;21.67;13.63;;;13.90;99.90;;;;;;5054908;28;20024;-66
2021/09/03 05:37:21;;;;;;;22.40;14.10;;;14.00;99.90;;;;;;5072958;28;20557;-68
2021/09/03 05:39:47;;;;;;;25.75;14.05;;;14.10;99.90;;;;;;5055001;28;20040;-73
2021/09/03 05:42:14;;;;;;;21.85;14.70;;;14.10;99.90;;;;;;5072854;28;20029;-67
2021/09/03 05:44:40;;;;;;;22.38;14.95;;;14.30;99.90;;;;;;5070870;28;20025;-66
2021/09/03 05:47:06;;;;;;;24.95;15.63;;;14.40;99.90;;;;;;5072378;28;20090;-63
2021/09/03 05:49:31;;;;;;;24.67;15.20;;;14.40;99.90;;;;;;5072593;28;20029;-64
2021/09/03 05:51:57;;;;;;;21.45;14.43;;;14.60;99.90;;;;;;5054469;28;20062;-67
2021/09/03 05:54:23;;;;;;;29.15;15.48;;;14.70;99.90;;;;;;5072406;28;20041;-65
2021/09/03 05:56:49;;;;;;;24.83;16.02;;;14.80;99.90;;;;;;5072426;28;20028;-65
2021/09/03 05:59:15;;;;;;;23.67;15.15;;;15.00;99.90;;;;;;5072196;28;20381;-65
2021/09/03 06:01:40;;;;;;;25.73;15.55;;;15.00;99.90;;;;;;5072425;28;20139;-65
2021/09/03 06:04:06;;;;;;;22.23;15.50;;;15.10;99.90;;;;;;5072683;28;20028;-66
2021/09/03 06:06:32;;;;;;;24.70;15.25;;;15.30;99.90;;;;;;5072794;28;20028;-63
2021/09/03 06:08:58;;;;;;;29.00;15.70;;;15.40;99.90;;;;;;5072576;28;20029;-63
2021/09/03 06:11:26;;;;;;;25.00;15.60;;;15.50;99.90;;;;;;5054346;28;20033;-64
2021/09/03 06:13:55;;;;;;;21.27;14.27;;;15.60;99.90;;;;;;5072809;28;20029;-67
2021/09/03 06:16:23;;;;;;;24.95;13.68;;;15.70;99.90;;;;;;5054413;28;20162;-69
2021/09/03 06:18:49;;;;;;;21.02;13.15;;;15.80;99.90;;;;;;5072478;28;20024;-66
2021/09/03 06:21:16;;;;;;;21.20;13.68;;;15.90;99.90;;;;;;5072636;28;20040;-66
2021/09/03 06:23:42;;;;;;;19.52;13.45;;;16.00;99.90;;;;;;5072215;28;20358;-64
2021/09/03 06:26:08;;;;;;;22.52;14.85;;;16.00;99.90;;;;;;5054418;28;20417;-64
2021/09/03 06:28:34;;;;;;;26.98;13.20;;;16.10;99.90;;;;;;5072271;28;20075;-66
2021/09/03 06:31:00;;;;;;;21.85;13.43;;;16.20;99.90;;;;;;5054348;28;20381;-67
2021/09/03 06:33:26;;;;;;;19.23;14.10;;;16.30;99.90;;;;;;5072360;28;20028;-67
2021/09/03 06:35:52;;;;;;;22.63;13.32;;;16.30;99.90;;;;;;5072052;28;20036;-67
2021/09/03 06:38:18;;;;;;;20.75;13.65;;;16.40;99.90;;;;;;5072348;28;20032;-68
2021/09/03 06:40:45;;;;;;;21.40;13.13;;;;;;;;;;5072086;28;20033;-65
2021/09/03 06:43:10;;;;;;;26.70;14.10;;;16.50;99.90;;;;;;5072179;28;20066;-65
2021/09/03 06:45:36;;;;;;;23.20;14.85;;;16.60;99.90;;;;;;5056320;28;20029;-65
2021/09/03 06:48:02;;;;;;;19.15;14.55;;;16.80;99.90;;;;;;5076179;28;20391;-65
2021/09/03 06:50:28;;;;;;;28.17;13.98;;;16.80;99.90;;;;;;5075839;28;20020;-65
2021/09/03 06:52:54;;;;;;;31.75;14.50;;;16.90;99.90;;;;;;5075674;28;20048;-65
2021/09/03 06:55:20;;;;;;;46.95;22.00;;;17.00;99.90;;;;;;5075264;28;20024;-65
2021/09/03 06:57:46;;;;;;;51.90;23.58;;;17.10;99.90;;;;;;5075669;28;20116;-66
2021/09/03 07:00:12;;;;;;;49.75;22.27;;;17.10;99.90;;;;;;5075411;28;20024;-65
2021/09/03 07:02:38;;;;;;;50.15;22.63;;;17.20;99.90;;;;;;5073951;28;20131;-66
2021/09/03 07:05:05;;;;;;;46.58;23.13;;;17.30;99.90;;;;;;5075316;28;20040;-65
2021/09/03 07:07:31;;;;;;;40.85;19.88;;;17.40;99.90;;;;;;5074996;28;20777;-68
2021/09/03 07:09:57;;;;;;;29.52;18.25;;;17.50;99.90;;;;;;5075395;28;20021;-66
2021/09/03 07:12:24;;;;;;;33.08;18.70;;;17.60;99.90;;;;;;5074878;28;20043;-68
2021/09/03 07:14:50;;;;;;;31.45;16.48;;;17.60;99.90;;;;;;5075202;28;20029;-66
2021/09/03 07:17:16;;;;;;;28.35;16.58;;;17.70;99.90;;;;;;5075076;28;20036;-67
2021/09/03 07:19:42;;;;;;;29.10;16.30;;;17.80;99.90;;;;;;5056813;28;20028;-65
2021/09/03 07:22:08;;;;;;;24.38;15.18;;;17.90;99.90;;;;;;5057117;28;20392;-65
2021/09/03 07:24:34;;;;;;;37.13;15.48;;;;;;;;;;5056840;28;20032;-67
2021/09/03 07:27:01;;;;;;;24.02;15.13;;;18.10;99.90;;;;;;5074645;28;20020;-65
2021/09/03 07:29:27;;;;;;;22.63;13.50;;;18.20;99.90;;;;;;5074850;28;20028;-65
2021/09/03 07:31:53;;;;;;;19.80;12.50;;;18.40;99.90;;;;;;5057009;28;20040;-66
2021/09/03 07:34:19;;;;;;;18.65;12.20;;;18.50;99.90;;;;;;5075007;28;20031;-66
2021/09/03 07:36:45;;;;;;;18.98;12.07;;;18.70;99.90;;;;;;5057000;28;20099;-67
2021/09/03 07:39:13;;;;;;;18.05;11.50;;;18.80;99.90;;;;;;5074765;28;20036;-67
2021/09/03 07:41:39;;;;;;;19.13;11.10;;;18.90;99.90;;;;;;5056772;28;20377;-66
2021/09/03 07:44:05;;;;;;;16.60;9.90;;;19.10;99.90;;;;;;5074467;28;20036;-66
2021/09/03 07:46:31;;;;;;;17.95;11.45;;;19.10;99.00;;;;;;5056806;28;20025;-66
2021/09/03 07:48:57;;;;;;;15.05;10.70;;;19.30;99.90;;;;;;5073724;28;20497;-66
2021/09/03 07:51:23;;;;;;;17.00;9.88;;;19.50;99.90;;;;;;5073030;28;20116;-66
2021/09/03 07:53:50;;;;;;;14.45;9.55;;;19.60;99.20;;;;;;5073471;28;20037;-66
2021/09/03 07:56:16;;;;;;;16.38;10.45;;;19.80;99.30;;;;;;5073001;28;20020;-64
2021/09/03 07:58:42;;;;;;;18.70;9.82;;;19.90;96.10;;;;;;5074530;28;20028;-67
2021/09/03 08:01:08;;;;;;;15.32;9.88;;;20.00;96.40;;;;;;5074604;28;20039;-67
2021/09/03 08:03:33;;;;;;;20.23;9.63;;;20.20;95.90;;;;;;5074074;28;20036;-69
2021/09/03 08:05:59;;;;;;;20.00;9.27;;;20.30;95.80;;;;;;5074702;28;20028;-68
2021/09/03 08:08:25;;;;;;;14.68;9.20;;;20.50;94.80;;;;;;5074291;28;20020;-65
2021/09/03 08:10:51;;;;;;;14.43;8.38;;;20.70;93.80;;;;;;5074239;28;20382;-67
2021/09/03 08:13:17;;;;;;;12.57;8.65;;;20.80;93.30;;;;;;5074486;28;20078;-65
2021/09/03 08:15:43;;;;;;;15.50;9.48;;;21.00;93.40;;;;;;5074065;28;20036;-66
2021/09/03 08:18:09;;;;;;;11.23;7.95;;;21.20;93.40;;;;;;5056269;28;20036;-69
2021/09/03 08:20:35;;;;;;;12.68;8.02;;;21.50;91.70;;;;;;5055944;28;20120;-66
2021/09/03 08:23:02;;;;;;;11.77;8.73;;;21.50;91.90;;;;;;5074068;28;20111;-69
2021/09/03 08:25:28;;;;;;;13.07;8.50;;;21.70;91.50;;;;;;5073887;28;20048;-67
2021/09/03 08:27:54;;;;;;;13.23;7.95;;;21.70;87.10;;;;;;5073727;28;20032;-66
2021/09/03 08:30:21;;;;;;;11.85;7.32;;;21.70;88.70;;;;;;5073668;28;20104;-67
2021/09/03 08:32:47;;;;;;;7.78;4.38;;;21.90;85.60;;;;;;5073717;28;20040;-65
2021/09/03 08:35:13;;;;;;;9.65;5.95;;;22.20;81.40;;;;;;5073553;28;20028;-68
2021/09/03 08:37:40;;;;;;;11.77;5.60;;;22.20;81.20;;;;;;5073704;28;20029;-69
2021/09/03 08:40:09;;;;;;;6.85;4.88;;;22.40;79.20;;;;;;5073625;28;20028;-68
2021/09/03 08:42:37;;;;;;;5.78;3.67;;;22.50;77.60;;;;;;5073600;28;20051;-67
2021/09/03 08:45:05;;;;;;;3.38;3.08;;;22.70;74.70;;;;;;5073613;28;20027;-68
2021/09/03 08:47:32;;;;;;;3.53;2.60;;;22.80;72.40;;;;;;5073434;28;20024;-69
2021/09/03 08:49:58;;;;;;;6.75;3.50;;;22.90;69.60;;;;;;5073014;28;20492;-69
2021/09/03 08:52:24;;;;;;;5.20;4.03;;;23.10;71.10;;;;;;5072869;28;20036;-67
2021/09/03 08:54:50;;;;;;;7.97;3.78;;;23.20;73.40;;;;;;5073187;28;20024;-67
2021/09/03 08:57:16;;;;;;;7.32;3.53;;;23.40;72.30;;;;;;5073155;28;20040;-67
2021/09/03 08:59:42;;;;;;;3.85;3.17;;;23.50;71.70;;;;;;5055193;28;20119;-68
2021/09/03 09:02:34;;;;;;;6.75;3.20;;;23.60;69.10;;;;;;5073317;28;20127;-69
2021/09/03 09:05:00;;;;;;;7.43;3.05;;;23.60;65.10;;;;;;5068254;28;20043;-66
2021/09/03 09:07:27;;;;;;;2.58;2.28;;;23.80;66.60;;;;;;5054676;28;20028;-67
2021/09/03 09:09:53;;;;;;;2.03;1.70;;;23.80;60.60;;;;;;5073280;28;20445;-67
2021/09/03 09:12:19;;;;;;;2.33;2.13;;;23.90;59.10;;;;;;5073274;28;20492;-68
2021/09/03 09:15:10;;;;;;;4.63;3.00;;;24.00;61.20;;;;;;5072928;28;20591;-67
2021/09/03 09:17:41;;;;;;;4.35;2.85;;;24.20;62.20;;;;;;5073282;28;20021;-68
2021/09/03 09:20:12;;;;;;;6.50;2.45;;;24.30;64.20;;;;;;5073293;28;20023;-66
2021/09/03 09:22:51;;;;;;;;;;;24.60;63.60;;;;;;5072503;28;20051;-68
2021/09/03 09:25:19;;;;;;;2.67;2.40;;;24.80;61.90;;;;;;5055124;28;19905;-66
2021/09/03 09:27:45;;;;;;;1.85;1.60;;;24.80;61.10;;;;;;5072594;28;20119;-67
2021/09/03 09:30:25;;;;;;;3.80;1.70;;;24.80;56.10;;;;;;5073102;28;20107;-68
2021/09/03 09:33:10;;;;;;;8.38;2.38;;;24.90;59.50;;;;;;5073013;28;20039;-68
2021/09/03 09:35:45;;;;;;;2.47;2.25;;;25.20;59.50;;;;;;5054958;28;20032;-67
2021/09/03 09:38:12;;;;;;;4.90;2.20;;;25.30;59.50;;;;;;5072615;28;20447;-68
2021/09/03 09:41:07;;;;;;;3.03;1.73;;;25.60;58.90;;;;;;5054792;28;20027;-69
2021/09/03 09:43:35;;;;;;;3.67;2.10;;;25.80;58.30;;;;;;5067414;28;20111;-67
2021/09/03 09:46:07;;;;;;;5.38;2.90;;;25.90;58.40;;;;;;5054538;28;20035;-67
2021/09/03 09:49:00;;;;;;;4.95;2.47;;;25.90;60.00;;;;;;5054802;28;20045;-67
2021/09/03 09:51:29;;;;;;;3.47;2.78;;;26.20;60.90;;;;;;5054661;28;20040;-66
2021/09/03 09:54:10;;;;;;;4.53;3.08;;;26.40;59.40;;;;;;5072680;28;20032;-66
2021/09/03 09:56:40;;;;;;;5.80;2.47;;;26.50;58.70;;;;;;5054862;28;20078;-68
2021/09/03 09:59:07;;;;;;;7.10;2.83;;;26.70;57.80;;;;;;5072536;28;20457;-67
2021/09/03 10:01:35;;;;;;;4.05;2.80;;;26.70;57.40;;;;;;5054386;28;20458;-68
2021/09/03 10:04:05;;;;;;;4.80;2.92;;;26.60;56.90;;;;;;5072747;28;20024;-67
2021/09/03 10:06:33;;;;;;;7.45;3.15;;;26.90;59.60;;;;;;5072623;28;20035;-69
2021/09/03 10:08:59;;;;;;;4.63;2.90;;;27.00;60.30;;;;;;5072681;28;20540;-69
2021/09/03 10:11:26;;;;;;;5.25;2.25;;;27.20;59.00;;;;;;5072557;28;20040;-67
2021/09/03 10:13:54;;;;;;;2.28;2.13;;;27.30;58.10;;;;;;5072689;28;20342;-67
2021/09/03 10:16:20;;;;;;;7.43;3.05;;;27.30;58.20;;;;;;5072631;28;20462;-69
2021/09/03 10:18:53;;;;;;;3.75;2.92;;;27.60;58.00;;;;;;5072870;28;20481;-67
2021/09/03 10:21:23;;;;;;;3.03;2.45;;;27.80;56.80;;;;;;5076014;28;20036;-67
2021/09/03 10:24:04;;;;;;;4.78;2.53;;;28.00;56.30;;;;;;5058516;28;20027;-68
2021/09/03 10:26:34;;;;;;;4.80;2.80;;;28.30;54.90;;;;;;5074398;28;20097;-66
2021/09/03 10:29:24;;;;;;;4.97;2.70;;;28.70;53.80;;;;;;5058311;28;20465;-69
2021/09/03 10:34:43;;;;;;;3.38;1.90;;;30.00;51.80;;;;;;5076177;28;20457;-67
2021/09/03 10:37:17;;;;;;;5.22;2.03;;;30.80;50.80;;;;;;5076387;28;20027;-66
2021/09/03 10:39:55;;;;;;;14.70;2.50;;;31.40;50.30;;;;;;5075969;28;20082;-67
2021/09/03 10:42:49;;;;;;;3.25;1.95;;;32.20;49.10;;;;;;5058015;28;20028;-68
2021/09/03 10:45:24;;;;;;;3.55;1.75;;;32.90;45.80;;;;;;5075788;28;20028;-69
2021/09/03 10:47:55;;;;;;;6.45;2.33;;;33.20;44.70;;;;;;5075946;28;20028;-69
2021/09/03 10:50:36;;;;;;;2.10;1.83;;;33.00;43.50;;;;;;5075873;28;20457;-69
2021/09/03 10:53:02;;;;;;;2.72;1.70;;;33.60;44.10;;;;;;5075870;28;20493;-69
2021/09/03 10:56:06;;;;;;;4.38;2.05;;;33.90;44.10;;;;;;5075809;28;20162;-69
2021/09/03 10:58:41;;;;;;;3.97;1.75;;;34.90;41.20;;;;;;5075758;28;20063;-69
2021/09/03 11:01:19;;;;;;;1.85;1.75;;;35.60;42.10;;;;;;5075137;28;20531;-69
2021/09/03 11:03:51;;;;;;;2.40;1.85;;;36.20;41.40;;;;;;5075747;28;20033;-69
2021/09/03 11:06:26;;;;;;;1.63;1.50;;;36.50;39.70;;;;;;5075576;28;20453;-68
2021/09/03 11:08:53;;;;;;;1.42;1.25;;;36.70;39.10;;;;;;5075553;28;20060;-68
2021/09/03 11:11:31;;;;;;;3.40;1.60;;;37.30;39.00;;;;;;5075576;28;20036;-68
2021/09/03 11:14:09;;;;;;;2.72;1.35;;;37.60;37.70;;;;;;5075592;28;20024;-68
2021/09/03 11:16:43;;;;;;;3.28;1.20;;;37.70;37.50;;;;;;5075769;28;20028;-69
2021/09/03 11:19:18;;;;;;;1.67;1.58;;;38.20;38.40;;;;;;5075436;28;20518;-69
2021/09/03 11:22:04;;;;;;;3.30;1.80;;;38.40;36.50;;;;;;5075595;28;20040;-70
2021/09/03 11:24:41;;;;;;;2.60;1.83;;;38.80;37.50;;;;;;5075355;28;20028;-68
2021/09/03 11:27:10;;;;;;;3.22;1.98;;;38.80;36.80;;;;;;5057360;28;20060;-68
2021/09/03 11:29:57;;;;;;;2.15;2.00;;;39.30;37.40;;;;;;5075011;28;20123;-68
2021/09/03 11:32:28;;;;;;;6.28;2.50;;;39.70;35.80;;;;;;5061027;28;20098;-67
2021/09/03 11:34:54;;;;;;;1.88;1.73;;;39.60;36.30;;;;;;5074888;28;20086;-71
2021/09/03 11:37:33;;;;;;;4.13;1.98;;;40.00;37.30;;;;;;5074703;28;20025;-69
2021/09/03 11:40:10;;;;;;;2.97;2.00;;;39.70;35.40;;;;;;5056454;28;20021;-69
2021/09/03 11:42:39;;;;;;;2.30;2.10;;;39.40;35.70;;;;;;5074685;28;20028;-69
2021/09/03 11:45:19;;;;;;;1.70;1.60;;;40.10;36.90;;;;;;5056556;28;20516;-69
2021/09/03 11:47:56;;;;;;;3.83;2.20;;;40.40;35.90;;;;;;5074691;28;20354;-69
2021/09/03 11:50:46;;;;;;;2.08;1.60;;;40.70;36.30;;;;;;5074638;28;20016;-70
2021/09/03 11:53:23;;;;;;;2.08;1.88;;;40.20;35.00;;;;;;5056704;28;20109;-72
2021/09/03 11:55:50;;;;;;;2.05;1.80;;;40.00;34.90;;;;;;5074711;28;20021;-71
2021/09/03 11:58:24;;;;;;;2.20;2.00;;;40.30;34.70;;;;;;5074467;28;20122;-69
2021/09/03 12:00:56;;;;;;;4.38;2.65;;;41.10;35.80;;;;;;5077260;28;20117;-70
2021/09/03 12:03:49;;;;;;;1.95;1.80;;;40.90;35.20;;;;;;5089285;28;20024;-69
2021/09/03 12:06:18;;;;;;;1.90;1.80;;;41.00;36.20;;;;;;5094359;28;20039;-69
2021/09/03 12:08:44;;;;;;;2.63;2.42;;;41.60;36.10;;;;;;5094443;28;20522;-70
2021/09/03 12:11:20;;;;;;;3.75;2.22;;;41.80;34.90;;;;;;5094514;28;20038;-68
2021/09/03 12:13:57;;;;;;;2.55;1.70;;;42.30;33.30;;;;;;5094606;28;20016;-69
2021/09/03 12:16:25;;;;;;;1.60;1.50;;;42.10;33.90;;;;;;5094513;28;20111;-68
2021/09/03 12:18:59;;;;;;;3.40;1.80;;;42.50;33.90;;;;;;5094714;28;20566;-71
2021/09/03 12:21:31;;;;;;;2.88;1.67;;;42.00;33.10;;;;;;5094372;28;20040;-70
2021/09/03 12:23:59;;;;;;;2.08;1.73;;;42.00;34.30;;;;;;5094219;28;20016;-69
2021/09/03 12:26:34;;;;;;;2.63;1.70;;;42.50;33.00;;;;;;5094105;28;20052;-69
2021/09/03 12:29:00;;;;;;;3.42;1.80;;;42.60;32.90;;;;;;5076218;28;20472;-71
2021/09/03 12:31:28;;;;;;;2.28;1.85;;;43.10;33.50;;;;;;5094275;28;20081;-69
2021/09/03 12:33:58;;;;;;;2.38;2.15;;;42.60;33.40;;;;;;5094308;28;20021;-69
2021/09/03 12:36:26;;;;;;;3.38;1.95;;;43.10;34.00;;;;;;5094091;28;20225;-70
2021/09/03 12:39:04;;;;;;;2.38;2.17;;;43.30;32.90;;;;;;5094143;28;20565;-71
2021/09/03 12:41:35;;;;;;;1.98;1.83;;;43.20;32.80;;;;;;5075589;28;20032;-68
2021/09/03 12:44:25;;;;;;;4.72;2.40;;;43.10;33.90;;;;;;5094038;28;20457;-68
2021/09/03 12:46:54;;;;;;;3.73;2.20;;;43.70;33.90;;;;;;5076117;28;20484;-69